Laveen, Arizona
Current Conditions -  °F | °C
As of 6:51 AM on Wednesday 26 Nov 2014 (Local Time) from KPHX Reporting Station
Clear Clear  
Wind Chill: 45°   Ceiling: Unl
Heat Index: 45°   Visibility: 10mi
Dew Point: 20°   Wind: 3mph
Humidity: 37%   Direction: 110°ESE
Pressure: 30.3"   Gusts: NA
Location:  33.36°N, 112.17°W
Report Text: KPHX 261351Z 11003KT 10SM CLR 07/M07 A3030 RMK AO2 SLP258 T00721067
Loading
Personal Weather Stations






























Interactive Weather Map New forecast layout! Learn more

10-Day Weather Forecast

Advertisements
Track Severe Weather on mobile